Time;durP1;ratioP1;P1;durP2;ratioP2;P2;SDS_P1;SDS_P2;PMS_P1;PMS_P2;Temp;Humidity;BMP_temperature;BMP_pressure;BME280_temperature;BME280_humidity;BME280_pressure;Samples;Min_cycle;Max_cycle;Signal;HPM_P1;HPM_P2
2022/09/18 00:01:37;;;;;;;3.73;2.90;;;9.60;99.90;;;;;;4971887;28;20710;-80
2022/09/18 00:04:06;;;;;;;6.60;2.67;;;9.60;99.90;;;;;;4973513;28;20205;-81
2022/09/18 00:06:35;;;;;;;5.20;3.27;;;9.60;99.90;;;;;;4971575;28;20310;-80
2022/09/18 00:09:05;;;;;;;4.23;3.90;;;9.60;99.90;;;;;;4964536;28;20207;-80
2022/09/18 00:11:35;;;;;;;7.13;6.53;;;9.60;99.90;;;;;;4971724;23;20234;-79
2022/09/18 00:14:02;;;;;;;8.27;7.60;;;9.60;99.90;;;;;;4956736;29;20690;-79
2022/09/18 00:16:29;;;;;;;8.83;8.17;;;9.60;99.90;;;;;;4944405;29;20191;-80
2022/09/18 00:18:56;;;;;;;4.80;4.27;;;9.60;99.90;;;;;;4939507;29;20627;-80
2022/09/18 00:21:24;;;;;;;6.50;6.00;;;9.60;99.90;;;;;;4953094;29;20211;-79
2022/09/18 00:23:53;;;;;;;2.97;2.37;;;9.60;99.90;;;;;;4937452;29;20852;-80
2022/09/18 00:26:24;;;;;;;2.97;2.50;;;9.50;99.90;;;;;;4933069;29;20230;-79
2022/09/18 00:28:51;;;;;;;2.60;2.40;;;9.50;99.90;;;;;;4935610;29;20625;-79
2022/09/18 00:31:21;;;;;;;3.23;2.33;;;9.60;99.90;;;;;;4935203;29;20254;-79
2022/09/18 00:33:47;;;;;;;2.63;2.43;;;9.60;99.90;;;;;;4924237;29;20253;-79
2022/09/18 00:36:17;;;;;;;3.00;2.67;;;9.60;99.90;;;;;;4935340;29;20207;-79
2022/09/18 00:38:44;;;;;;;3.13;2.83;;;9.60;99.90;;;;;;4931717;29;20205;-79
2022/09/18 00:41:14;;;;;;;5.20;4.80;;;9.60;99.90;;;;;;4936541;29;20208;-79
2022/09/18 00:43:43;;;;;;;3.10;2.30;;;9.60;99.90;;;;;;4937312;29;20230;-78
2022/09/18 00:46:23;;;;;;;4.83;4.53;;;9.60;99.90;;;;;;4927000;29;20262;-79
2022/09/18 00:49:02;;;;;;;3.93;2.70;;;9.60;99.90;;;;;;4928940;29;20251;-79
2022/09/18 00:51:30;;;;;;;5.90;5.43;;;9.60;99.90;;;;;;4945198;29;20720;-79
2022/09/18 00:54:05;;;;;;;5.90;5.40;;;9.60;99.90;;;;;;4936922;29;20618;-79
2022/09/18 00:56:32;;;;;;;3.33;3.07;;;9.70;99.90;;;;;;4930080;29;20206;-79
2022/09/18 00:59:01;;;;;;;2.50;2.30;;;9.60;99.90;;;;;;4936529;29;20270;-80
2022/09/18 01:01:27;;;;;;;3.60;2.73;;;9.70;99.90;;;;;;4936062;29;20633;-78
2022/09/18 01:03:54;;;;;;;2.63;2.40;;;9.70;99.90;;;;;;4936621;29;20262;-79
2022/09/18 01:06:30;;;;;;;3.57;2.77;;;9.70;99.90;;;;;;4926248;29;20203;-78
2022/09/18 01:09:08;;;;;;;3.00;2.70;;;9.70;99.90;;;;;;4926284;29;20262;-79
2022/09/18 01:11:42;;;;;;;3.33;2.67;;;9.70;99.90;;;;;;4934691;29;20294;-79
2022/09/18 01:14:23;;;;;;;3.70;3.20;;;9.70;99.90;;;;;;4934929;29;20199;-79
2022/09/18 01:16:57;;;;;;;4.40;2.90;;;9.80;99.90;;;;;;4935076;29;20246;-78
2022/09/18 01:19:37;;;;;;;5.37;3.10;;;9.80;99.90;;;;;;4935382;29;20222;-79
2022/09/18 01:22:19;;;;;;;5.23;3.87;;;9.70;99.90;;;;;;4933120;29;20658;-78
2022/09/18 01:24:58;;;;;;;4.63;4.37;;;9.80;99.90;;;;;;4932692;29;20203;-79
2022/09/18 01:27:32;;;;;;;6.17;5.67;;;9.80;99.90;;;;;;4933455;29;20215;-79
2022/09/18 01:30:04;;;;;;;2.90;2.40;;;9.80;99.90;;;;;;4936428;29;20190;-79
2022/09/18 01:32:37;;;;;;;4.30;3.27;;;9.80;99.90;;;;;;4935455;29;20278;-79
2022/09/18 01:35:10;;;;;;;4.43;4.03;;;9.80;99.90;;;;;;4935521;29;20210;-79
2022/09/18 01:37:42;;;;;;;4.77;3.10;;;9.90;99.90;;;;;;4936460;29;20580;-79
2022/09/18 01:40:16;;;;;;;5.37;4.63;;;9.80;99.90;;;;;;4931926;29;20675;-79
2022/09/18 01:42:46;;;;;;;4.00;2.80;;;9.80;99.90;;;;;;4932327;29;20264;-79
2022/09/18 01:45:19;;;;;;;2.53;2.20;;;9.80;99.90;;;;;;4928372;29;20678;-79
2022/09/18 01:47:51;;;;;;;2.40;2.20;;;9.80;99.90;;;;;;4934449;29;20215;-79
2022/09/18 01:50:20;;;;;;;3.23;2.50;;;9.80;99.90;;;;;;4935234;29;20227;-78
2022/09/18 01:52:52;;;;;;;3.10;2.40;;;9.80;99.90;;;;;;4935972;29;20226;-79
2022/09/18 01:55:24;;;;;;;4.27;2.27;;;9.80;99.90;;;;;;4935793;29;20203;-78
2022/09/18 01:57:55;;;;;;;4.70;2.80;;;9.80;99.90;;;;;;4936152;29;20763;-80
2022/09/18 02:00:24;;;;;;;3.70;2.40;;;9.80;99.90;;;;;;4932313;29;20311;-79
2022/09/18 02:02:55;;;;;;;4.37;2.47;;;9.80;99.90;;;;;;4933324;29;20222;-79
2022/09/18 02:05:29;;;;;;;2.50;2.30;;;9.80;99.90;;;;;;4927668;29;20198;-79
2022/09/18 02:08:07;;;;;;;3.37;2.57;;;9.70;99.90;;;;;;4924715;29;20220;-78
2022/09/18 02:10:40;;;;;;;5.20;2.43;;;9.80;99.90;;;;;;4928485;29;20202;-79
2022/09/18 02:13:12;;;;;;;2.70;2.47;;;9.80;99.90;;;;;;4925145;29;20697;-79
2022/09/18 02:15:43;;;;;;;2.53;2.33;;;9.80;99.90;;;;;;4927745;29;20195;-79
2022/09/18 02:18:18;;;;;;;2.70;2.30;;;9.80;99.90;;;;;;4933813;29;20627;-78
2022/09/18 02:20:47;;;;;;;2.70;2.50;;;9.80;99.90;;;;;;4923363;29;20209;-79
2022/09/18 02:23:14;;;;;;;3.87;2.10;;;9.70;99.90;;;;;;4927309;29;20224;-79
2022/09/18 02:25:48;;;;;;;2.97;2.40;;;9.70;99.90;;;;;;4934955;29;20207;-79
2022/09/18 02:28:18;;;;;;;2.67;2.47;;;9.80;99.90;;;;;;4935598;29;20225;-79
2022/09/18 02:30:47;;;;;;;4.50;2.70;;;9.80;99.90;;;;;;4934945;29;20214;-79
2022/09/18 02:33:25;;;;;;;7.30;6.80;;;9.80;99.90;;;;;;4931657;29;20266;-79
2022/09/18 02:36:21;;;;;;;7.90;7.40;;;9.80;99.90;;;;;;4932760;29;20230;-79
2022/09/18 02:38:59;;;;;;;8.13;7.53;;;9.80;99.90;;;;;;4928362;29;20279;-79
2022/09/18 02:41:34;;;;;;;8.27;7.50;;;9.80;99.90;;;;;;4934198;29;20211;-79
2022/09/18 02:44:08;;;;;;;11.47;10.67;;;9.90;99.90;;;;;;4934888;29;20573;-79
2022/09/18 02:46:49;;;;;;;8.27;7.53;;;9.80;99.90;;;;;;4920528;29;20195;-78
2022/09/18 02:49:28;;;;;;;9.37;8.57;;;9.80;99.90;;;;;;4933889;29;20222;-79
2022/09/18 02:52:02;;;;;;;9.20;8.60;;;9.80;99.90;;;;;;4922755;29;20215;-78
2022/09/18 02:54:36;;;;;;;8.40;7.70;;;9.80;99.90;;;;;;4948029;29;20195;-78
2022/09/18 02:57:09;;;;;;;9.70;8.90;;;9.80;99.90;;;;;;4933980;29;20284;-78
2022/09/18 02:59:40;;;;;;;10.00;9.30;;;9.70;99.90;;;;;;4946804;29;20304;-78
2022/09/18 03:02:10;;;;;;;9.80;9.10;;;9.70;99.90;;;;;;4937143;29;20215;-78
2022/09/18 03:04:39;;;;;;;9.10;8.50;;;9.70;99.90;;;;;;4928880;29;20221;-78
2022/09/18 03:07:13;;;;;;;8.30;7.50;;;9.70;99.90;;;;;;4934450;29;20203;-78
2022/09/18 03:09:42;;;;;;;8.60;8.00;;;9.70;99.90;;;;;;4928977;29;20196;-79
2022/09/18 03:12:09;;;;;;;7.97;7.47;;;9.70;99.90;;;;;;4934539;29;20591;-78
2022/09/18 03:14:39;;;;;;;8.60;7.90;;;9.70;99.90;;;;;;4934425;29;20210;-78
2022/09/18 03:17:06;;;;;;;8.43;7.73;;;9.70;99.90;;;;;;4933730;29;20203;-78
2022/09/18 03:19:35;;;;;;;8.43;7.83;;;9.70;99.90;;;;;;4931064;29;20559;-78
2022/09/18 03:22:03;;;;;;;8.47;7.87;;;9.70;99.90;;;;;;4927360;29;20219;-78
2022/09/18 03:24:33;;;;;;;8.03;7.63;;;9.80;99.90;;;;;;4935651;29;20761;-79
2022/09/18 03:27:00;;;;;;;8.10;7.50;;;9.70;99.90;;;;;;4932292;29;20213;-78
2022/09/18 03:29:28;;;;;;;8.20;7.60;;;9.70;99.90;;;;;;4931803;29;20293;-78
2022/09/18 03:31:56;;;;;;;8.60;8.00;;;9.70;99.90;;;;;;4926626;29;20219;-78
2022/09/18 03:34:23;;;;;;;8.40;7.90;;;9.70;99.90;;;;;;4928329;29;20210;-78
2022/09/18 03:36:52;;;;;;;8.20;7.70;;;9.70;99.90;;;;;;4934422;29;20252;-79
2022/09/18 03:39:19;;;;;;;8.50;7.90;;;9.70;99.90;;;;;;4939087;29;20199;-78
2022/09/18 03:41:47;;;;;;;8.40;7.80;;;9.70;99.90;;;;;;4930779;29;20719;-78
2022/09/18 03:44:14;;;;;;;8.70;8.00;;;9.70;99.90;;;;;;4925995;29;20208;-78
2022/09/18 03:46:43;;;;;;;8.37;7.77;;;9.70;99.90;;;;;;4933794;29;20294;-78
2022/09/18 03:49:10;;;;;;;8.40;7.80;;;9.70;99.90;;;;;;4932866;29;20290;-78
2022/09/18 03:51:39;;;;;;;8.80;7.90;;;9.70;99.90;;;;;;4933185;29;20245;-78
2022/09/18 03:54:08;;;;;;;8.53;7.93;;;9.70;99.90;;;;;;4932401;29;20195;-78
2022/09/18 03:56:41;;;;;;;8.80;8.10;;;9.70;99.90;;;;;;4933507;29;20208;-79
2022/09/18 03:59:28;;;;;;;8.87;8.07;;;9.70;99.90;;;;;;4921685;29;20210;-77
2022/09/18 04:02:11;;;;;;;8.83;8.13;;;9.80;99.90;;;;;;4931333;29;20229;-79
2022/09/18 04:04:56;;;;;;;8.40;7.80;;;9.80;99.90;;;;;;4932587;29;20214;-78
2022/09/18 04:07:42;;;;;;;8.07;7.57;;;9.80;99.90;;;;;;4926488;29;20222;-78
2022/09/18 04:10:36;;;;;;;8.60;7.90;;;9.80;99.90;;;;;;4920309;29;20210;-78
2022/09/18 04:13:04;;;;;;;9.20;8.40;;;9.70;99.90;;;;;;4933780;29;20227;-78
2022/09/18 04:15:35;;;;;;;8.77;8.13;;;9.70;99.90;;;;;;4930489;29;20203;-78
2022/09/18 04:18:02;;;;;;;8.50;7.90;;;9.80;99.90;;;;;;4934884;29;20187;-79
2022/09/18 04:20:31;;;;;;;8.10;7.60;;;9.70;99.90;;;;;;4934923;29;20222;-78
2022/09/18 04:22:59;;;;;;;9.10;8.20;;;9.70;99.90;;;;;;4931986;29;20243;-78
2022/09/18 04:25:26;;;;;;;9.27;8.67;;;9.70;99.90;;;;;;4932425;29;20207;-78
2022/09/18 04:27:54;;;;;;;8.23;7.63;;;9.70;99.90;;;;;;4927168;29;20223;-79
2022/09/18 04:30:21;;;;;;;8.93;8.33;;;9.70;99.90;;;;;;4929884;29;20223;-79
2022/09/18 04:32:49;;;;;;;8.97;8.37;;;9.70;99.90;;;;;;4923511;29;20570;-79
2022/09/18 04:35:17;;;;;;;8.90;8.20;;;9.70;99.90;;;;;;4929412;29;20223;-78
2022/09/18 04:37:44;;;;;;;9.03;8.23;;;9.70;99.90;;;;;;4936533;29;20292;-78
2022/09/18 04:40:12;;;;;;;8.33;7.90;;;9.70;99.90;;;;;;4943517;29;20660;-79
2022/09/18 04:42:41;;;;;;;8.70;8.20;;;9.70;99.90;;;;;;4933532;29;20222;-79
2022/09/18 04:45:10;;;;;;;8.20;7.50;;;9.70;99.90;;;;;;4930299;29;20199;-78
2022/09/18 04:47:40;;;;;;;8.03;7.53;;;9.80;99.90;;;;;;4931320;29;20251;-78
2022/09/18 04:50:09;;;;;;;8.20;7.70;;;9.80;99.90;;;;;;4933978;29;20192;-79
2022/09/18 04:52:38;;;;;;;8.20;7.70;;;9.80;99.90;;;;;;4937189;29;20243;-79
2022/09/18 04:55:05;;;;;;;8.30;7.80;;;9.70;99.90;;;;;;4935429;29;20290;-78
2022/09/18 04:57:32;;;;;;;8.37;7.87;;;9.70;99.90;;;;;;4933293;29;20214;-77
2022/09/18 04:59:59;;;;;;;8.63;7.90;;;9.70;99.90;;;;;;4937039;29;20195;-78
2022/09/18 05:02:27;;;;;;;9.30;8.73;;;9.70;99.90;;;;;;4931678;29;20865;-78
2022/09/18 05:04:54;;;;;;;8.27;7.67;;;9.70;99.90;;;;;;4930013;29;20204;-79
2022/09/18 05:07:27;;;;;;;8.47;7.87;;;9.70;99.90;;;;;;4926245;29;20667;-79
2022/09/18 05:09:55;;;;;;;8.40;7.80;;;9.80;99.90;;;;;;4933173;29;20215;-78
2022/09/18 05:12:21;;;;;;;7.90;7.30;;;9.80;99.90;;;;;;4943438;29;20294;-78
2022/09/18 05:14:49;;;;;;;8.00;7.50;;;9.70;99.90;;;;;;4938192;29;20665;-78
2022/09/18 05:17:18;;;;;;;7.77;7.27;;;9.70;99.90;;;;;;4934405;29;20231;-78
2022/09/18 05:20:01;;;;;;;7.80;7.30;;;9.70;99.90;;;;;;4925273;29;20203;-78
2022/09/18 05:22:36;;;;;;;8.13;7.63;;;9.80;99.90;;;;;;4933973;29;20247;-79
2022/09/18 05:25:06;;;;;;;8.20;7.67;;;9.80;99.90;;;;;;4941061;29;20191;-78
2022/09/18 05:27:33;;;;;;;8.50;7.90;;;9.80;99.90;;;;;;4933096;29;20200;-79
2022/09/18 05:30:00;;;;;;;8.53;8.00;;;9.90;99.90;;;;;;4929250;29;20241;-79
2022/09/18 05:32:45;;;;;;;8.67;7.90;;;9.80;99.90;;;;;;4925202;29;20219;-79
2022/09/18 05:35:13;;;;;;;8.13;7.63;;;9.80;99.90;;;;;;4932340;29;20214;-79
2022/09/18 05:37:42;;;;;;;8.00;7.60;;;9.80;99.90;;;;;;4922454;29;20188;-78
2022/09/18 05:40:10;;;;;;;8.53;8.03;;;9.80;99.90;;;;;;4930745;29;20188;-79
2022/09/18 05:42:37;;;;;;;9.70;9.00;;;9.80;99.90;;;;;;4928637;29;20226;-78
2022/09/18 05:45:05;;;;;;;9.57;8.70;;;9.80;99.90;;;;;;4932854;29;20223;-79
2022/09/18 05:47:34;;;;;;;8.33;7.77;;;9.80;99.90;;;;;;4924903;29;20215;-79
2022/09/18 05:50:01;;;;;;;8.70;8.10;;;9.90;99.90;;;;;;4929600;29;20306;-79
2022/09/18 05:52:30;;;;;;;8.90;8.20;;;9.90;99.90;;;;;;4926284;29;20218;-78
2022/09/18 05:54:57;;;;;;;8.20;7.70;;;9.80;99.90;;;;;;4935603;29;20200;-79
2022/09/18 05:57:24;;;;;;;8.23;7.73;;;9.90;99.90;;;;;;4932760;29;20255;-79
2022/09/18 05:59:51;;;;;;;8.57;8.07;;;9.90;99.90;;;;;;4923168;29;20191;-79
2022/09/18 06:02:17;;;;;;;8.70;8.10;;;9.90;99.90;;;;;;4934122;29;20226;-78
2022/09/18 06:05:02;;;;;;;9.37;8.67;;;9.90;99.90;;;;;;4932064;29;20235;-78
2022/09/18 06:07:31;;;;;;;9.20;8.40;;;10.00;99.90;;;;;;4922266;29;20199;-79
2022/09/18 06:09:59;;;;;;;8.97;8.27;;;10.00;99.90;;;;;;4929309;29;20689;-78
2022/09/18 06:12:27;;;;;;;8.63;8.10;;;10.00;99.90;;;;;;4928557;29;20235;-79
2022/09/18 06:14:54;;;;;;;8.97;8.37;;;10.00;99.90;;;;;;4935546;29;20700;-79
2022/09/18 06:17:20;;;;;;;8.80;8.20;;;10.00;99.90;;;;;;4935033;29;20665;-79
2022/09/18 06:19:50;;;;;;;8.80;8.30;;;10.10;99.90;;;;;;4928817;29;20200;-78
2022/09/18 06:22:17;;;;;;;8.73;8.20;;;10.10;99.90;;;;;;4931926;29;20317;-79
2022/09/18 06:24:45;;;;;;;10.00;9.30;;;10.10;99.90;;;;;;4929290;29;20247;-79
2022/09/18 06:27:17;;;;;;;9.07;8.47;;;10.20;99.90;;;;;;4933338;29;20203;-79
2022/09/18 06:29:44;;;;;;;9.10;8.43;;;10.20;99.90;;;;;;4933552;29;20295;-79
2022/09/18 06:32:15;;;;;;;9.40;8.80;;;10.20;99.90;;;;;;4934597;29;20302;-79
2022/09/18 06:34:42;;;;;;;9.60;9.00;;;10.30;99.90;;;;;;4945483;29;20274;-80
2022/09/18 06:37:13;;;;;;;9.47;8.77;;;10.30;99.90;;;;;;4942435;29;20195;-81
2022/09/18 06:39:44;;;;;;;9.67;8.97;;;10.40;99.90;;;;;;4930687;29;20210;-81
2022/09/18 06:42:24;;;;;;;9.40;8.80;;;10.40;99.90;;;;;;4932072;29;20279;-79
2022/09/18 06:45:08;;;;;;;9.43;8.83;;;10.50;99.90;;;;;;4933014;29;20222;-83
2022/09/18 06:47:34;;;;;;;10.17;9.53;;;10.60;99.90;;;;;;4936972;29;20548;-84
2022/09/18 06:50:01;;;;;;;9.93;9.23;;;10.70;99.90;;;;;;4935911;29;20211;-83
2022/09/18 06:52:29;;;;;;;9.70;9.00;;;10.80;99.90;;;;;;4935531;29;20247;-83
2022/09/18 06:55:00;;;;;;;9.87;9.10;;;10.80;99.90;;;;;;4950993;29;20187;-79
2022/09/18 06:57:32;;;;;;;10.00;9.20;;;11.00;99.90;;;;;;4926100;29;20208;-83
2022/09/18 06:59:58;;;;;;;9.10;8.50;;;11.10;99.90;;;;;;4936559;29;20262;-81
2022/09/18 07:02:27;;;;;;;9.30;8.70;;;11.10;99.90;;;;;;4927397;29;20227;-82
2022/09/18 07:05:14;;;;;;;9.70;8.83;;;11.10;99.90;;;;;;4926741;29;20231;-81
2022/09/18 07:07:45;;;;;;;9.60;9.00;;;11.00;99.90;;;;;;4930378;29;20293;-81
2022/09/18 07:10:13;;;;;;;9.33;8.53;;;11.00;99.90;;;;;;4934549;29;20267;-81
2022/09/18 07:12:47;;;;;;;10.30;9.50;;;11.20;99.90;;;;;;4929218;29;20227;-81
2022/09/18 07:15:15;;;;;;;9.27;8.60;;;11.30;99.90;;;;;;4934909;29;20208;-82
2022/09/18 07:17:42;;;;;;;9.40;8.70;;;11.30;99.90;;;;;;4927668;29;20203;-82
2022/09/18 07:20:11;;;;;;;10.00;9.40;;;11.30;99.90;;;;;;4935152;29;20193;-83
2022/09/18 07:22:42;;;;;;;10.07;9.30;;;11.40;99.90;;;;;;4934611;29;20731;-82
2022/09/18 07:25:10;;;;;;;10.37;9.67;;;11.50;99.90;;;;;;4934730;29;20199;-81
2022/09/18 07:27:42;;;;;;;10.30;9.60;;;11.60;99.90;;;;;;4932699;29;20694;-81
2022/09/18 07:30:11;;;;;;;9.87;9.23;;;11.90;99.90;;;;;;4933896;29;20221;-82
2022/09/18 07:32:38;;;;;;;9.90;9.27;;;12.10;99.90;;;;;;4929402;29;20239;-81
2022/09/18 07:35:11;;;;;;;10.00;9.40;;;12.20;99.90;;;;;;4935374;29;20204;-81
2022/09/18 07:37:38;;;;;;;9.27;8.60;;;12.40;99.90;;;;;;4931335;29;20201;-81
2022/09/18 07:40:19;;;;;;;10.33;9.63;;;12.60;99.90;;;;;;4927434;29;20701;-81
2022/09/18 07:43:11;;;;;;;9.40;8.70;;;12.70;99.90;;;;;;4930419;29;20309;-81
2022/09/18 07:45:44;;;;;;;9.10;8.50;;;12.70;99.90;;;;;;4945067;29;20262;-81
2022/09/18 07:48:12;;;;;;;9.47;8.87;;;12.60;99.90;;;;;;4931446;29;20203;-79
2022/09/18 07:50:45;;;;;;;9.23;8.63;;;12.70;99.90;;;;;;4936410;29;20654;-79
2022/09/18 07:53:12;;;;;;;9.70;9.10;;;12.70;99.90;;;;;;4937744;29;20233;-83
2022/09/18 07:55:44;;;;;;;9.00;8.40;;;12.60;99.90;;;;;;4928981;29;20198;-83
2022/09/18 07:58:14;;;;;;;9.30;8.60;;;12.40;99.90;;;;;;4928928;29;20198;-81
2022/09/18 08:00:59;;;;;;;7.40;6.90;;;12.30;99.90;;;;;;4929571;29;20201;-82
2022/09/18 08:03:27;;;;;;;5.33;4.53;;;12.10;99.90;;;;;;4927986;29;20316;-83
2022/09/18 08:06:20;;;;;;;9.10;8.40;;;12.00;99.90;;;;;;4905839;29;20213;-80
2022/09/18 08:09:13;;;;;;;9.30;8.60;;;11.90;99.90;;;;;;4935164;29;20242;-82
2022/09/18 08:11:53;;;;;;;8.60;8.10;;;11.80;99.90;;;;;;4934411;29;20677;-82
2022/09/18 08:14:32;;;;;;;8.60;8.00;;;11.80;99.90;;;;;;4928946;29;20197;-81
2022/09/18 08:17:19;;;;;;;8.60;8.00;;;11.80;99.90;;;;;;4919497;29;20718;-83
2022/09/18 08:20:07;;;;;;;8.80;8.20;;;11.80;99.90;;;;;;4934552;29;20213;-82
2022/09/18 08:22:46;;;;;;;8.30;7.80;;;11.90;99.90;;;;;;4934364;29;20229;-81
2022/09/18 08:25:14;;;;;;;8.70;8.10;;;12.10;99.90;;;;;;4936176;29;20296;-83
2022/09/18 08:27:45;;;;;;;8.30;7.60;;;12.10;99.90;;;;;;4928732;29;20226;-82
2022/09/18 08:30:15;;;;;;;8.23;7.73;;;12.10;99.90;;;;;;4934185;29;20319;-81
2022/09/18 08:32:44;;;;;;;8.03;7.53;;;12.00;99.90;;;;;;4932583;29;20815;-81
2022/09/18 08:35:12;;;;;;;8.20;7.70;;;12.10;99.90;;;;;;4938406;29;20637;-82
2022/09/18 08:37:46;;;;;;;8.47;7.97;;;12.00;99.90;;;;;;4936689;29;20197;-81
2022/09/18 08:40:52;;;;;;;8.50;8.00;;;12.10;99.90;;;;;;4937292;29;20190;-82
2022/09/18 08:43:34;;;;;;;7.80;7.30;;;12.20;99.90;;;;;;4932777;29;20236;-82
2022/09/18 08:46:07;;;;;;;2.80;2.60;;;12.40;99.90;;;;;;4926388;29;20200;-83
2022/09/18 08:48:39;;;;;;;2.20;2.10;;;12.50;99.90;;;;;;4931870;29;20230;-83
2022/09/18 08:51:16;;;;;;;2.10;2.00;;;12.80;99.90;;;;;;4929366;29;20226;-80
2022/09/18 08:53:49;;;;;;;2.50;2.30;;;13.00;99.90;;;;;;4933317;29;20233;-81
2022/09/18 08:56:36;;;;;;;7.50;7.10;;;13.30;99.90;;;;;;4943723;29;20202;-83
2022/09/18 08:59:26;;;;;;;7.80;7.20;;;13.50;99.90;;;;;;4929126;29;20203;-82
2022/09/18 09:02:12;;;;;;;2.03;1.93;;;13.70;99.90;;;;;;4937280;29;20282;-84
2022/09/18 09:04:39;;;;;;;2.33;2.23;;;14.00;99.90;;;;;;4930077;29;20261;-84
2022/09/18 09:07:22;;;;;;;2.07;1.97;;;14.20;99.90;;;;;;4936676;29;20247;-87
2022/09/18 09:10:05;;;;;;;2.80;2.03;;;14.00;99.90;;;;;;4936808;29;20212;-86
2022/09/18 09:12:45;;;;;;;3.77;3.50;;;14.00;99.90;;;;;;4933760;29;20235;-83
2022/09/18 09:15:37;;;;;;;5.23;4.83;;;14.00;99.90;;;;;;4936688;29;20199;-83
2022/09/18 09:18:16;;;;;;;8.43;7.93;;;14.00;99.90;;;;;;4933408;29;20205;-81
2022/09/18 09:20:51;;;;;;;8.93;8.33;;;14.00;99.90;;;;;;4929738;29;20199;-83
2022/09/18 09:23:29;;;;;;;5.60;5.20;;;13.90;99.90;;;;;;4931490;29;20222;-83
2022/09/18 09:26:05;;;;;;;10.20;9.60;;;13.80;99.90;;;;;;4936137;29;20668;-84
2022/09/18 09:28:55;;;;;;;9.33;8.73;;;13.60;99.90;;;;;;4935862;29;20323;-81
2022/09/18 09:32:01;;;;;;;10.87;9.23;;;13.50;99.90;;;;;;4933203;29;20741;-80
2022/09/18 09:34:55;;;;;;;9.00;8.30;;;13.40;99.90;;;;;;4936543;29;20200;-84
2022/09/18 09:37:47;;;;;;;8.37;7.77;;;13.40;99.90;;;;;;4931110;29;20206;-84
2022/09/18 09:40:19;;;;;;;8.03;7.33;;;13.30;99.90;;;;;;4928608;29;20206;-83
2022/09/18 09:42:51;;;;;;;7.73;7.20;;;13.30;99.90;;;;;;4922732;29;20215;-83
2022/09/18 09:45:28;;;;;;;8.33;7.80;;;13.30;99.90;;;;;;4928463;29;20204;-83
2022/09/18 09:48:01;;;;;;;8.33;7.80;;;13.40;99.90;;;;;;4935503;29;20227;-83
2022/09/18 09:50:44;;;;;;;7.90;7.30;;;13.60;99.90;;;;;;4928124;29;20308;-84
2022/09/18 09:53:13;;;;;;;8.10;7.50;;;13.90;99.90;;;;;;4931738;29;20225;-84
2022/09/18 09:55:49;;;;;;;9.33;8.63;;;14.10;99.90;;;;;;4938029;29;20216;-80
2022/09/18 09:58:28;;;;;;;8.40;7.80;;;14.40;99.90;;;;;;4927954;29;20646;-82
2022/09/18 10:01:03;;;;;;;2.83;2.50;;;14.60;99.90;;;;;;4927672;29;20208;-83
2022/09/18 10:03:53;;;;;;;7.03;6.43;;;14.90;99.90;;;;;;4927446;29;20215;-84
2022/09/18 10:06:35;;;;;;;5.30;4.80;;;15.30;99.90;;;;;;4934627;29;20690;-84
2022/09/18 10:09:12;;;;;;;7.80;7.10;;;15.70;99.90;;;;;;4935786;29;20670;-85
2022/09/18 10:11:42;;;;;;;4.93;2.90;;;15.70;99.90;;;;;;4932228;29;20691;-85
2022/09/18 10:14:15;;;;;;;8.23;7.63;;;15.40;99.90;;;;;;4934477;29;20248;-84
2022/09/18 10:16:45;;;;;;;7.80;7.30;;;15.30;99.90;;;;;;4925407;29;20202;-83
2022/09/18 10:19:17;;;;;;;8.67;7.70;;;15.20;99.90;;;;;;4917060;29;20207;-84
2022/09/18 10:21:47;;;;;;;8.63;7.90;;;15.10;99.90;;;;;;4935272;29;20279;-84
2022/09/18 10:24:21;;;;;;;8.73;7.93;;;15.00;99.90;;;;;;4931801;29;20232;-84
2022/09/18 10:26:54;;;;;;;7.87;7.27;;;15.10;99.90;;;;;;4932472;29;20196;-84
2022/09/18 10:29:20;;;;;;;8.17;7.37;;;15.30;99.90;;;;;;4935801;29;20210;-83
2022/09/18 10:31:55;;;;;;;7.93;7.13;;;15.40;99.90;;;;;;4933984;29;20622;-84
2022/09/18 10:34:38;;;;;;;7.57;6.97;;;15.40;99.90;;;;;;4935679;29;20197;-81
2022/09/18 10:37:14;;;;;;;7.13;6.60;;;15.40;99.90;;;;;;4934472;29;20260;-84
2022/09/18 10:39:48;;;;;;;7.30;6.70;;;15.50;99.90;;;;;;4922368;29;20618;-83
2022/09/18 10:42:20;;;;;;;6.67;6.13;;;15.60;99.90;;;;;;4951885;29;20243;-83
2022/09/18 10:44:52;;;;;;;3.53;2.00;;;15.70;99.90;;;;;;4932994;29;20203;-84
2022/09/18 10:47:26;;;;;;;3.03;2.27;;;15.80;99.90;;;;;;4933073;29;20203;-83
2022/09/18 10:49:57;;;;;;;3.93;2.40;;;15.70;99.90;;;;;;4930697;29;20642;-84
2022/09/18 10:52:31;;;;;;;3.77;2.00;;;15.70;99.90;;;;;;4933643;29;20278;-83
2022/09/18 10:55:17;;;;;;;5.53;5.13;;;15.70;99.90;;;;;;4934031;29;20206;-84
2022/09/18 10:58:13;;;;;;;4.73;3.93;;;15.70;99.90;;;;;;4935359;29;20607;-79
2022/09/18 11:00:52;;;;;;;4.13;2.57;;;15.60;99.90;;;;;;4928807;29;20253;-84
2022/09/18 11:03:40;;;;;;;4.57;4.17;;;15.60;99.90;;;;;;4930842;29;20240;-84
2022/09/18 11:06:14;;;;;;;9.17;4.87;;;15.60;99.90;;;;;;4932536;29;20731;-83
2022/09/18 11:08:47;;;;;;;7.80;7.10;;;15.60;99.90;;;;;;4932619;29;20202;-83
2022/09/18 11:11:33;;;;;;;5.03;4.63;;;15.70;99.90;;;;;;4934813;29;20290;-84
2022/09/18 11:14:17;;;;;;;7.80;7.10;;;16.00;99.90;;;;;;4929187;29;20214;-83
2022/09/18 11:17:17;;;;;;;6.67;6.27;;;16.20;99.90;;;;;;4923631;29;20264;-82
2022/09/18 11:19:50;;;;;;;7.17;6.63;;;16.30;99.90;;;;;;4931236;29;20265;-83
2022/09/18 11:22:32;;;;;;;2.73;2.17;;;16.40;99.90;;;;;;4933544;29;20704;-84
2022/09/18 11:25:20;;;;;;;2.20;2.00;;;16.50;99.90;;;;;;4922210;29;20207;-83
2022/09/18 11:27:51;;;;;;;3.97;3.40;;;16.50;99.90;;;;;;4927185;29;20200;-85
2022/09/18 11:30:23;;;;;;;4.97;4.30;;;16.50;99.90;;;;;;4929904;29;20312;-83
2022/09/18 11:32:54;;;;;;;4.67;2.10;;;16.50;99.90;;;;;;4927815;29;20243;-83
2022/09/18 11:35:22;;;;;;;2.50;1.80;;;16.30;99.90;;;;;;4939158;29;20213;-83
2022/09/18 11:37:53;;;;;;;6.97;6.47;;;16.20;99.90;;;;;;4925381;29;20203;-83
2022/09/18 11:40:25;;;;;;;6.77;6.13;;;16.10;99.90;;;;;;4936049;29;20214;-83
2022/09/18 11:42:54;;;;;;;3.10;2.20;;;16.00;99.90;;;;;;4925519;29;20234;-83
2022/09/18 11:45:44;;;;;;;7.57;7.07;;;15.90;99.90;;;;;;4935944;29;20583;-82
2022/09/18 11:48:23;;;;;;;10.50;6.40;;;15.80;99.90;;;;;;4923665;29;20209;-82
2022/09/18 11:50:56;;;;;;;8.30;7.60;;;15.70;99.90;;;;;;4932532;29;20214;-82
2022/09/18 11:53:27;;;;;;;7.87;7.17;;;15.60;99.90;;;;;;4931375;29;20266;-81
2022/09/18 11:56:02;;;;;;;3.83;3.53;;;15.60;99.90;;;;;;4929911;29;20207;-81
2022/09/18 11:58:36;;;;;;;4.70;4.30;;;15.80;99.90;;;;;;4916083;29;20210;-81
2022/09/18 12:01:13;;;;;;;6.00;5.40;;;15.90;99.90;;;;;;4922574;29;20203;-81
2022/09/18 12:03:46;;;;;;;6.63;6.13;;;15.80;99.90;;;;;;4923893;29;20202;-81
2022/09/18 12:06:23;;;;;;;4.20;3.90;;;15.70;99.90;;;;;;4932238;29;20306;-81
2022/09/18 12:08:56;;;;;;;7.43;6.97;;;15.70;99.90;;;;;;4932055;29;20199;-81
2022/09/18 12:11:35;;;;;;;7.40;6.80;;;15.70;99.90;;;;;;4929962;29;20215;-81
2022/09/18 12:14:12;;;;;;;7.73;6.90;;;15.80;99.90;;;;;;4933901;29;20221;-81
2022/09/18 12:16:46;;;;;;;7.30;6.80;;;15.90;99.90;;;;;;4928676;29;20203;-81
2022/09/18 12:19:19;;;;;;;2.73;2.20;;;16.10;99.90;;;;;;4959775;23;20241;-82
2022/09/18 12:21:53;;;;;;;4.30;4.00;;;16.20;99.90;;;;;;4962068;28;20566;-80
2022/09/18 12:24:20;;;;;;;7.33;6.70;;;16.30;99.90;;;;;;4945315;29;20848;-81
2022/09/18 12:27:05;;;;;;;7.40;6.90;;;16.30;99.90;;;;;;4948723;29;20194;-81
2022/09/18 12:29:50;;;;;;;8.20;7.30;;;16.40;99.90;;;;;;4944304;29;20231;-82
2022/09/18 12:32:35;;;;;;;6.83;6.33;;;16.20;99.90;;;;;;4962017;28;20207;-82
2022/09/18 12:35:11;;;;;;;8.33;7.63;;;16.10;99.90;;;;;;4961841;29;20253;-82
2022/09/18 12:37:51;;;;;;;7.87;7.27;;;16.00;99.90;;;;;;4939633;29;20238;-83
2022/09/18 12:40:36;;;;;;;7.17;6.67;;;15.90;99.90;;;;;;4959949;28;20227;-81
2022/09/18 12:43:31;;;;;;;8.47;7.70;;;15.70;99.90;;;;;;4942866;29;20261;-82
2022/09/18 12:46:30;;;;;;;7.23;6.73;;;15.80;99.90;;;;;;4955892;29;20202;-77
2022/09/18 12:49:15;;;;;;;7.13;6.63;;;15.80;99.90;;;;;;4938136;29;20273;-78
2022/09/18 12:51:46;;;;;;;8.37;7.70;;;15.90;99.90;;;;;;4953738;29;20210;-80
2022/09/18 12:54:37;;;;;;;6.93;6.53;;;15.90;99.90;;;;;;4959864;28;20229;-80
2022/09/18 12:57:23;;;;;;;7.47;6.70;;;15.90;99.90;;;;;;4961594;28;20198;-82
2022/09/18 12:59:56;;;;;;;7.70;7.20;;;15.90;99.90;;;;;;4943751;29;20574;-83
2022/09/18 13:02:41;;;;;;;7.10;6.60;;;16.00;99.90;;;;;;4943331;28;20222;-81
2022/09/18 13:05:16;;;;;;;6.80;6.40;;;16.00;99.90;;;;;;4961505;29;20249;-82
2022/09/18 13:07:49;;;;;;;7.50;7.00;;;15.90;99.90;;;;;;4942312;29;20264;-80
2022/09/18 13:10:22;;;;;;;7.10;6.50;;;15.70;99.90;;;;;;4943081;29;20229;-80
2022/09/18 13:12:55;;;;;;;7.80;7.20;;;15.70;99.90;;;;;;4943648;29;20261;-82
2022/09/18 13:15:27;;;;;;;7.77;7.27;;;15.70;99.90;;;;;;4959843;29;20205;-77
2022/09/18 13:18:03;;;;;;;7.27;6.77;;;15.70;99.90;;;;;;4933672;29;20207;-76
2022/09/18 13:20:34;;;;;;;7.03;6.50;;;15.70;99.90;;;;;;4923323;29;20235;-77
2022/09/18 13:23:01;;;;;;;7.20;6.80;;;15.70;99.90;;;;;;4940725;29;20258;-77
2022/09/18 13:25:34;;;;;;;9.43;8.70;;;15.80;99.90;;;;;;4940954;29;20667;-78